Nearby METAR Reports

 

KBGR - Bangor, Maine, USA
Distance from station: E 5mi, 8km
Updated: Thu, 20-Feb-2020 1:53am EST
Clear
Clear
 Wind from WNW
Wind: WNW 12 mph , 19 km/h, Gust: 23 mph , 37 km/h
Temperature: 12°F , -11°C
Wind Chill: -2°F , -19°C
Dew Point: -8°F , -22°C
Humidity: 40%
Barometer: 30.29 inHg , 1025.7 hPa
Clouds: Clear
Visibility: 10 miles , 16 km
2020/02/20 06:53 KBGR 200653Z 29010G20KT 10SM CLR M11/M22 A3029 RMK AO2 SLP261 T11111217
KBHB - Bar Harbor, Maine, USA
Distance from station: SE 37mi, 59km
Updated: Thu, 20-Feb-2020 1:56am EST
Clear
Clear
 Wind from WNW
Wind: WNW 13 mph , 20 km/h, Gust: 21 mph , 33 km/h
Temperature: 14°F , -10°C
Wind Chill: -0°F , -18°C
Dew Point: -0°F , -18°C
Humidity: 52%
Barometer: 30.29 inHg , 1025.7 hPa
Clouds: Clear
Visibility: 10 miles , 16 km
2020/02/20 06:56 KBHB 200656Z AUTO 30011G18KT 260V340 10SM CLR M10/M18 A3029 RMK AO2 SLP259 T11001178 FZRANO
 
KWVL - Waterville, Maine, USA
Distance from station: WSW 42mi, 68km
Updated: Thu, 20-Feb-2020 1:56am EST
Clear
Clear
 Wind from W
Wind: W 10 mph , 17 km/h
Temperature: 10°F , -12°C
Wind Chill: -4°F , -20°C
Dew Point: -4°F , -20°C
Humidity: 52%
Barometer: 30.27 inHg , 1025.1 hPa
Clouds: Clear
Visibility: 10 miles , 16 km
2020/02/20 06:56 KWVL 200656Z AUTO 28009KT 10SM CLR M12/M20 A3027 RMK AO2 SLP287 T11171200 FZRANO
KRKD - Rockland/Knox, Maine, USA
Distance from station: S 52mi, 84km
Updated: Thu, 20-Feb-2020 1:56am EST
Clear
Clear
 Wind from WNW
Wind: WNW 10 mph , 17 km/h, Gust: 16 mph , 26 km/h
Temperature: 16°F , -9°C
Wind Chill: 4°F , -16°C
Dew Point: 1°F , -17°C
Humidity: 53%
Barometer: 30.31 inHg , 1026.4 hPa
Clouds: Clear
Visibility: 10 miles , 16 km
2020/02/20 06:56 KRKD 200656Z AUTO 30009G14KT 10SM CLR M09/M17 A3031 RMK AO2 SLP265 T10891172 FZRANO
 
KAUG - Augusta, Maine, USA
Distance from station: SW 55mi, 89km
Updated: Thu, 20-Feb-2020 1:53am EST
Clear
Clear
 Wind from WNW
Wind: WNW 12 mph , 19 km/h
Temperature: 12°F , -11°C
Wind Chill: -2°F , -19°C
Dew Point: -4°F , -20°C
Humidity: 48%
Barometer: 30.31 inHg , 1026.4 hPa
Clouds: Clear
Visibility: 10 miles , 16 km
2020/02/20 06:53 KAUG 200653Z AUTO 30010KT 10SM CLR M11/M20 A3031 RMK AO2 SLP269 T11061200
KGNR - Greenville, Maine, USA
Distance from station: NW 55mi, 89km
Updated: Thu, 20-Feb-2020 1:56am EST

 Wind from NW
Wind: NW 14 mph , 22 km/h, Gust: 23 mph , 37 km/h
Temperature: 1°F , -17°C
Wind Chill: -18°F , -28°C
Dew Point: -8°F , -22°C
Humidity: 65%
Barometer: 30.12 inHg , 1020 hPa
2020/02/20 06:56 KGNR 200656Z AUTO 31012G20KT M17/M22 A3012 RMK AO1 SLP231 T11721222
 
KMLT - Millinocket, Maine, USA
Distance from station: N 59mi, 95km
Updated: Thu, 20-Feb-2020 1:53am EST
Clear
Clear
 Wind from WNW
Wind: WNW 10 mph , 17 km/h, Gust: 17 mph , 28 km/h
Temperature: 5°F , -15°C
Wind Chill: -10°F , -23°C
Dew Point: -9°F , -23°C
Humidity: 51%
Barometer: 30.25 inHg , 1024.4 hPa
Clouds: Clear
Visibility: 10 miles , 16 km
2020/02/20 06:53 KMLT 200653Z AUTO 29009G15KT 10SM CLR M15/M23 A3025 RMK AO2 SLP256 T11501233
KIWI - Wiscasset, Maine, USA
Distance from station: SW 70mi, 113km
Updated: Thu, 20-Feb-2020 1:53am EST
Clear
Clear
 Wind from varies
Wind: varies 3 mph , 6 km/h
Temperature: 16°F , -9°C
Dew Point: -2°F , -19°C
Humidity: 45%
Barometer: 30.33 inHg , 1027.1 hPa
Clouds: Clear
Visibility: 10 miles , 16 km
2020/02/20 06:53 KIWI 200653Z AUTO VRB03KT 10SM CLR M09/M19 A3033 RMK AO2 SLP273 T10891189
 
CWSS - St. Stephen (mar, New Brunswick, Canada
Distance from station: ENE 86mi, 138km
Updated: Thu, 19-Dec-2019 6:00pm EST
NOT Current

 Wind from W
Wind: W 9 mph , 15 km/h
Temperature: 9°F , -13°C
Wind Chill: -4°F , -20°C
Dew Point: -4°F , -20°C
Humidity: 56%
2019/12/19 23:00 CWSS 192300Z AUTO 27008KT M13/M20 RMK AO1 PK WND 26017/2228 SLP131 T11341199 51023
KLEW - Auburn/Lewiston, Maine, USA
Distance from station: SW 86mi, 138km
Updated: Thu, 20-Feb-2020 1:56am EST
Partly cloudy
Partly cloudy
 Wind from N
Wind: N 8 mph , 13 km/h
Temperature: 12°F , -11°C
Wind Chill: 0°F , -18°C
Dew Point: -0°F , -18°C
Humidity: 57%
Barometer: 30.31 inHg , 1026.4 hPa
Clouds: Partly cloudy
Visibility: 10 miles , 16 km
Cloud details: Partly cloudy 6000 ft
2020/02/20 06:56 KLEW 200656Z AUTO 36007KT 10SM SCT060 M11/M18 A3031 RMK AO2 SLP277 T11061178 FZRANO
 
KHUL - Houlton, Maine, USA
Distance from station: NNE 105mi, 169km
Updated: Thu, 20-Feb-2020 1:53am EST
Clear
Clear
 Wind from WNW
Wind: WNW 9 mph , 15 km/h, Gust: 18 mph , 30 km/h
Temperature: 5°F , -15°C
Wind Chill: -9°F , -23°C
Dew Point: -8°F , -22°C
Humidity: 55%
Barometer: 30.17 inHg , 1021.7 hPa
Clouds: Clear
Visibility: 10 miles , 16 km
2020/02/20 06:53 KHUL 200653Z AUTO 30008G16KT 10SM CLR M15/M22 A3017 RMK AO2 SLP227 T11501222
KPWM - Portland, Maine, USA
Distance from station: SW 105mi, 170km
Updated: Thu, 20-Feb-2020 1:51am EST
Clear
Clear
 Wind from N
Wind: N 5 mph , 7 km/h
Temperature: 19°F , -7°C
Wind Chill: 12°F , -11°C
Dew Point: -0°F , -18°C
Humidity: 42%
Barometer: 30.33 inHg , 1027.1 hPa
Clouds: Clear
Visibility: 10 miles , 16 km
2020/02/20 06:51 KPWM 200651Z AUTO 35004KT 10SM CLR M07/M18 A3033 RMK AO2 SLP270 T10671178
 
KBML - Berlin, New Hampshire, USA
Distance from station: W 113mi, 181km
Updated: Thu, 20-Feb-2020 1:52am EST
Clear
Clear
 Wind from calm
Wind: Calm
Temperature: -2°F , -19°C
Dew Point: -8°F , -22°C
Humidity: 77%
Barometer: 30.25 inHg , 1024.4 hPa
Clouds: Clear
Visibility: 10 miles , 16 km
2020/02/20 06:52 KBML 200652Z AUTO 00000KT 10SM CLR M19/M22 A3025 RMK AO2 SLP269 T11891217
KIZG - Fryeburg, Maine, USA
Distance from station: WSW 116mi, 186km
Updated: Thu, 20-Feb-2020 1:54am EST
Few Clouds
Few Clouds
 Wind from SW
Wind: SW 7 mph , 11 km/h
Temperature: 14°F , -10°C
Wind Chill: 4°F , -16°C
Dew Point: -2°F , -19°C
Humidity: 48%
Barometer: 30.30 inHg , 1026.1 hPa
Clouds: Few Clouds
Visibility: 10 miles , 16 km
Cloud details: Few Clouds 6000 ft
2020/02/20 06:54 KIZG 200654Z AUTO 22006KT 10SM FEW060 M10/M19 A3030 RMK AO2 SLP267 T11001194
 
CWPE - Point Lepreau, New Brunswick, Canada
Distance from station: E 121mi, 195km
Updated: Thu, 20-Feb-2020 2:00am EST

 Wind from WNW
Wind: WNW 13 mph , 20 km/h, Gust: 24 mph , 39 km/h
Temperature: 14°F , -10°C
Wind Chill: -0°F , -18°C
Dew Point: -2°F , -19°C
Humidity: 48%
2020/02/20 07:00 CWPE 200700Z AUTO 30011G21KT M10/M19 RMK AO1 SOG 01 1027 PK WND 28021/0644 SLP230 T10981186
KMWN - Mount Washington, New Hampshire, USA
Distance from station: WSW 123mi, 198km
Updated: Thu, 20-Feb-2020 1:51am EST
Freezing fog, Overcast
Freezing fog, Overcast
 Wind from WNW
Wind: WNW 70 mph , 113 km/h, Gust: 76 mph , 122 km/h
Temperature: -11°F , -24°C
Wind Chill: -51°F , -46°C
Dew Point: -11°F , -24°C
Humidity: 100%
Summary: Freezing Fog
Clouds: Overcast
Visibility: 1/16 mile , 0.1 km
Cloud details: Overcast 100 ft
2020/02/20 06:51 KMWN 200651Z 29061G66KT 1/16SM FZFG VV001 M24/M24 RMK VRY LGT ICG
 
KPQI - Presque Isle, Maine, USA
Distance from station: ESE 136mi, 219km
Updated: Thu, 20-Feb-2020 1:56am EST
Clear
Clear
 Wind from NW
Wind: NW 10 mph , 17 km/h
Temperature: 1°F , -17°C
Wind Chill: -15°F , -26°C
Dew Point: -11°F , -24°C
Humidity: 55%
Barometer: 30.18 inHg , 1022 hPa
Clouds: Clear
Visibility: 10 miles , 16 km
2020/02/20 06:56 KPQI 200656Z AUTO 31009KT 10SM CLR M17/M24 A3018 RMK AO2 SLP258 T11721239
KCAR - Caribou, Maine, USA
Distance from station: NNE 148mi, 238km
Updated: Thu, 20-Feb-2020 1:54am EST
Clear
Clear
 Wind from NNW
Wind: NNW 9 mph , 15 km/h
Temperature: -2°F , -19°C
Wind Chill: -18°F , -28°C
Dew Point: -11°F , -24°C
Humidity: 65%
Barometer: 30.15 inHg , 1021 hPa
Clouds: Clear
Visibility: 10 miles , 16 km
2020/02/20 06:54 KCAR 200654Z AUTO 33008KT 10SM CLR M19/M24 A3015 RMK AO2 UPE39 SLP227 P0000 T11891244